KBDE/BDE METAR and TAF weather

Enter ICAO airport designator
Station Type Date Time Source
KBDE METAR 2023/02/04 01:53 UTC NOAA

KBDE 040153Z AUTO 17012G19KT 10SM OVC036 M17/M26 A3000 RMK AO2 SLP200 T11671261


Station Type Date Time Source
KBDE Decoded METAR 2023/02/04 01:53 UTC NOAA

BAUDETTE INTERNATIONAL AIRPORT, MN, United States (KBDE) 48-44N 94-37W 329M
Feb 03, 2023 - 08:53 PM EST / 2023.02.04 0153 UTC
Wind: from the S (170 degrees) at 14 MPH (12 KT) gusting to 22 MPH (19 KT):0
Visibility: 10 mile(s):0
Sky conditions: overcast
Temperature: 1.9 F (-16.7 C)
Windchill: -16 F (-27 C):2
Dew Point: -15.0 F (-26.1 C)
Relative Humidity: 44%
Pressure (altimeter): 30 in. Hg (1015 hPa)
ob: KBDE 040153Z AUTO 17012G19KT 10SM OVC036 M17/M26 A3000 RMK AO2 SLP200 T11671261
cycle: 2

Station Type Date Time Source
KBDE TAF UTC NOAA

Error!

Example: see airport list